KOLU

Details ICAO KOLU
Name COLUMBUS MUNI
Region United States
Timezone America/Chicago (UTC-6.0)
Plans Departing 1
Arriving 2
Stats Elevation 1,444 ft / 440 m (AMSL)
Location 41.448592° -97.340040°
Runways 2
Magnetic Variation 3.556° E
Sunrise 2017-12-12 13:48:00 UTC / 2017-12-12 07:48:00 Local
Sunset 2017-12-12 23:01:17 UTC / 2017-12-12 17:01:17 Local
Advertisement - Login to hide

Runways

ID Width Length Bearing (true) Bearing (mag) Surface Threshold Offset Overrun Length
02 151 ft / 46 m 4,040 ft / 1,231 m 29.70° 26.14° Grass 0 ft / 0 m 0 ft / 0 m
14 98 ft / 30 m 6,808 ft / 2,075 m 149.90° 146.34° Concrete 0 ft / 0 m 0 ft / 0 m
20 151 ft / 46 m 4,040 ft / 1,231 m 209.70° 206.14° Grass 0 ft / 0 m 0 ft / 0 m
32 98 ft / 30 m 6,808 ft / 2,075 m 329.90° 326.34° Concrete 951 ft / 290 m 0 ft / 0 m

Approach Navaids

Runway Type Ident Frequency Range Bearing (true) Bearing (mag) Slope Elevation
14 Localiser IOLU 109.10 MHz 18 nm / 33 km 149.92° 146.36° - 1,439 ft / 439 m (AMSL)

Map

Weather


0- 5 10 15 20 25 30 35+ Temperature / ° C

Clouds and Precipitation
Forecast for 2017-12-12 18:00 UTC. Updated an hour ago

Ground ~20,000 ft ~40,000 ft Winds

METAR

KOLU 121356Z AUTO 24003KT 10SM FEW038 M11/M12 A3031 RMK AO2 SLP287 T11061122 FZRANO

TAF

Not found

Frequencies

Recorded 125.52 MHz AWOS 3
Unicom 123.05 MHz CTAF/UNICOM
Warning: Do not use this data for real-world aviation or navigation. No guarantee of current accuracy is given.